Plainville, Connecticut
Current Conditions -  °F | °C
As of 4:53 AM on Sunday 21 Dec 2014 (Local Time) from KMMK Reporting Station
Light Snow Light Snow  
Wind Chill: 27°   Ceiling: 1900
Heat Index: 32°   Visibility: 3mi
Dew Point: 29°   Wind: 5mph
Humidity: 88%   Direction: 340°NNW
Pressure: 30.28"   Gusts: NA
Location:  41.67°N, 72.86°W
Report Text: KMMK 210953Z AUTO 34004KT 3SM -SN BR SCT010 OVC019 00/M02 A3028 RMK AO2 SNB49 SLP255 P0000 T00001017 TSNO
Loading
Personal Weather Stations






























Interactive Weather Map New forecast layout! Learn more

10-Day Weather Forecast

Advertisements
Track Severe Weather on mobile